sensor_id;sensor_type;location;lat;lon;timestamp;pressure;altitude;pressure_sealevel;temperature;humidity
21956;BME280;11142;49.930;8.606;2024-02-04T00:00:50;101011.38;;;11.26;100.00
21956;BME280;11142;49.930;8.606;2024-02-04T00:03:18;101005.03;;;11.14;100.00
21956;BME280;11142;49.930;8.606;2024-02-04T00:05:49;101010.56;;;11.08;100.00
21956;BME280;11142;49.930;8.606;2024-02-04T00:08:17;101000.31;;;11.05;100.00
21956;BME280;11142;49.930;8.606;2024-02-04T00:10:45;100992.91;;;10.98;100.00
21956;BME280;11142;49.930;8.606;2024-02-04T00:13:13;100983.69;;;10.92;100.00
21956;BME280;11142;49.930;8.606;2024-02-04T00:15:41;100980.69;;;11.00;100.00
21956;BME280;11142;49.930;8.606;2024-02-04T00:18:11;100975.19;;;11.06;100.00
21956;BME280;11142;49.930;8.606;2024-02-04T00:20:39;100988.03;;;11.09;100.00
21956;BME280;11142;49.930;8.606;2024-02-04T00:23:07;100981.44;;;11.19;100.00
21956;BME280;11142;49.930;8.606;2024-02-04T00:25:35;100980.91;;;11.12;100.00
21956;BME280;11142;49.930;8.606;2024-02-04T00:28:04;100973.81;;;11.16;100.00
21956;BME280;11142;49.930;8.606;2024-02-04T00:30:32;100964.66;;;11.09;100.00
21956;BME280;11142;49.930;8.606;2024-02-04T00:33:00;100970.59;;;11.11;100.00
21956;BME280;11142;49.930;8.606;2024-02-04T00:35:31;100975.72;;;11.12;100.00
21956;BME280;11142;49.930;8.606;2024-02-04T00:37:59;100971.59;;;10.91;100.00
21956;BME280;11142;49.930;8.606;2024-02-04T00:40:30;100965.88;;;11.02;100.00
21956;BME280;11142;49.930;8.606;2024-02-04T00:43:01;100960.84;;;10.99;100.00
21956;BME280;11142;49.930;8.606;2024-02-04T00:45:29;100955.91;;;11.10;100.00
21956;BME280;11142;49.930;8.606;2024-02-04T00:47:57;100966.31;;;11.10;100.00
21956;BME280;11142;49.930;8.606;2024-02-04T00:50:25;100964.56;;;11.10;100.00
21956;BME280;11142;49.930;8.606;2024-02-04T00:52:54;100965.53;;;11.25;100.00
21956;BME280;11142;49.930;8.606;2024-02-04T00:55:23;100966.50;;;11.23;100.00
21956;BME280;11142;49.930;8.606;2024-02-04T00:57:52;100958.97;;;11.18;100.00
21956;BME280;11142;49.930;8.606;2024-02-04T01:00:22;100958.22;;;11.16;100.00
21956;BME280;11142;49.930;8.606;2024-02-04T01:02:50;100960.75;;;11.00;100.00
21956;BME280;11142;49.930;8.606;2024-02-04T01:05:18;100966.31;;;11.10;100.00
21956;BME280;11142;49.930;8.606;2024-02-04T01:07:46;100971.06;;;11.19;100.00
21956;BME280;11142;49.930;8.606;2024-02-04T01:10:16;100964.13;;;11.35;100.00
21956;BME280;11142;49.930;8.606;2024-02-04T01:12:44;100973.91;;;11.30;100.00
21956;BME280;11142;49.930;8.606;2024-02-04T01:15:12;100982.19;;;11.21;100.00
21956;BME280;11142;49.930;8.606;2024-02-04T01:17:40;100989.03;;;11.39;100.00
21956;BME280;11142;49.930;8.606;2024-02-04T01:20:09;100972.38;;;11.26;100.00
21956;BME280;11142;49.930;8.606;2024-02-04T01:22:38;100975.16;;;11.23;100.00
21956;BME280;11142;49.930;8.606;2024-02-04T01:25:06;100964.13;;;11.02;100.00
21956;BME280;11142;49.930;8.606;2024-02-04T01:27:36;100953.25;;;10.94;100.00
21956;BME280;11142;49.930;8.606;2024-02-04T01:30:05;100949.69;;;10.97;100.00
21956;BME280;11142;49.930;8.606;2024-02-04T01:32:34;100963.59;;;10.96;100.00
21956;BME280;11142;49.930;8.606;2024-02-04T01:35:05;100961.38;;;10.88;100.00
21956;BME280;11142;49.930;8.606;2024-02-04T01:37:33;100957.13;;;10.87;100.00
21956;BME280;11142;49.930;8.606;2024-02-04T01:40:01;100965.66;;;10.89;100.00
21956;BME280;11142;49.930;8.606;2024-02-04T01:42:33;100975.97;;;10.91;100.00
21956;BME280;11142;49.930;8.606;2024-02-04T01:45:04;100979.16;;;10.96;100.00
21956;BME280;11142;49.930;8.606;2024-02-04T01:47:32;100971.06;;;10.85;100.00
21956;BME280;11142;49.930;8.606;2024-02-04T01:50:00;100957.88;;;10.89;100.00
21956;BME280;11142;49.930;8.606;2024-02-04T01:52:30;100957.81;;;10.91;100.00
21956;BME280;11142;49.930;8.606;2024-02-04T01:55:00;100966.25;;;10.94;100.00
21956;BME280;11142;49.930;8.606;2024-02-04T01:57:28;100967.66;;;10.84;100.00
21956;BME280;11142;49.930;8.606;2024-02-04T01:59:57;100979.00;;;10.82;100.00
21956;BME280;11142;49.930;8.606;2024-02-04T02:02:26;100971.63;;;10.74;100.00
21956;BME280;11142;49.930;8.606;2024-02-04T02:04:56;100957.50;;;10.80;100.00
21956;BME280;11142;49.930;8.606;2024-02-04T02:07:24;100942.16;;;10.58;100.00
21956;BME280;11142;49.930;8.606;2024-02-04T02:09:54;100928.16;;;10.43;100.00
21956;BME280;11142;49.930;8.606;2024-02-04T02:12:25;100918.19;;;10.36;100.00
21956;BME280;11142;49.930;8.606;2024-02-04T02:14:59;100900.13;;;10.16;100.00
21956;BME280;11142;49.930;8.606;2024-02-04T02:17:38;100890.41;;;10.21;100.00
21956;BME280;11142;49.930;8.606;2024-02-04T02:20:18;100888.03;;;10.16;100.00
21956;BME280;11142;49.930;8.606;2024-02-04T02:22:50;100882.25;;;10.09;100.00
21956;BME280;11142;49.930;8.606;2024-02-04T02:25:21;100877.44;;;10.21;100.00
21956;BME280;11142;49.930;8.606;2024-02-04T02:27:49;100872.41;;;10.18;100.00
21956;BME280;11142;49.930;8.606;2024-02-04T02:30:18;100867.59;;;10.27;100.00
21956;BME280;11142;49.930;8.606;2024-02-04T02:32:48;100864.06;;;10.45;100.00
21956;BME280;11142;49.930;8.606;2024-02-04T02:35:17;100864.69;;;10.33;100.00
21956;BME280;11142;49.930;8.606;2024-02-04T02:37:50;100860.34;;;10.34;100.00
21956;BME280;11142;49.930;8.606;2024-02-04T02:40:26;100854.63;;;10.27;100.00
21956;BME280;11142;49.930;8.606;2024-02-04T02:42:57;100849.41;;;10.44;100.00
21956;BME280;11142;49.930;8.606;2024-02-04T02:45:29;100852.91;;;10.43;100.00
21956;BME280;11142;49.930;8.606;2024-02-04T02:47:59;100851.00;;;10.47;100.00
21956;BME280;11142;49.930;8.606;2024-02-04T02:50:27;100850.09;;;10.48;100.00
21956;BME280;11142;49.930;8.606;2024-02-04T02:52:55;100842.31;;;10.48;100.00
21956;BME280;11142;49.930;8.606;2024-02-04T02:55:25;100830.56;;;10.41;100.00
21956;BME280;11142;49.930;8.606;2024-02-04T02:57:52;100827.91;;;10.25;100.00
21956;BME280;11142;49.930;8.606;2024-02-04T03:00:21;100814.66;;;10.14;100.00
21956;BME280;11142;49.930;8.606;2024-02-04T03:02:49;100815.81;;;10.07;100.00
21956;BME280;11142;49.930;8.606;2024-02-04T03:05:17;100801.97;;;10.08;100.00
21956;BME280;11142;49.930;8.606;2024-02-04T03:07:46;100796.94;;;10.05;100.00
21956;BME280;11142;49.930;8.606;2024-02-04T03:10:14;100784.34;;;9.97;100.00
21956;BME280;11142;49.930;8.606;2024-02-04T03:12:43;100785.63;;;9.89;100.00
21956;BME280;11142;49.930;8.606;2024-02-04T03:15:11;100766.56;;;9.90;100.00
21956;BME280;11142;49.930;8.606;2024-02-04T03:17:39;100771.59;;;9.93;100.00
21956;BME280;11142;49.930;8.606;2024-02-04T03:20:08;100773.28;;;9.94;100.00
21956;BME280;11142;49.930;8.606;2024-02-04T03:22:36;100766.34;;;9.94;100.00
21956;BME280;11142;49.930;8.606;2024-02-04T03:25:05;100772.69;;;9.89;100.00
21956;BME280;11142;49.930;8.606;2024-02-04T03:27:34;100774.63;;;9.84;100.00
21956;BME280;11142;49.930;8.606;2024-02-04T03:30:04;100766.78;;;10.02;100.00
21956;BME280;11142;49.930;8.606;2024-02-04T03:32:32;100782.69;;;10.13;100.00
21956;BME280;11142;49.930;8.606;2024-02-04T03:35:01;100773.84;;;10.18;100.00
21956;BME280;11142;49.930;8.606;2024-02-04T03:37:31;100784.63;;;10.08;100.00
21956;BME280;11142;49.930;8.606;2024-02-04T03:39:58;100788.75;;;10.12;100.00
21956;BME280;11142;49.930;8.606;2024-02-04T03:42:27;100788.75;;;10.12;100.00
21956;BME280;11142;49.930;8.606;2024-02-04T03:44:56;100789.31;;;10.19;100.00
21956;BME280;11142;49.930;8.606;2024-02-04T03:47:25;100786.31;;;10.09;100.00
21956;BME280;11142;49.930;8.606;2024-02-04T03:49:53;100788.31;;;10.04;100.00
21956;BME280;11142;49.930;8.606;2024-02-04T03:52:21;100783.88;;;10.06;100.00
21956;BME280;11142;49.930;8.606;2024-02-04T03:54:49;100775.25;;;10.06;100.00
21956;BME280;11142;49.930;8.606;2024-02-04T03:57:17;100777.41;;;9.98;100.00
21956;BME280;11142;49.930;8.606;2024-02-04T03:59:44;100776.63;;;9.96;100.00
21956;BME280;11142;49.930;8.606;2024-02-04T04:02:13;100776.47;;;9.99;100.00
21956;BME280;11142;49.930;8.606;2024-02-04T04:04:42;100772.22;;;9.98;100.00
21956;BME280;11142;49.930;8.606;2024-02-04T04:07:14;100769.38;;;10.02;100.00
21956;BME280;11142;49.930;8.606;2024-02-04T04:09:43;100765.13;;;10.01;100.00
21956;BME280;11142;49.930;8.606;2024-02-04T04:12:11;100768.47;;;10.03;100.00
21956;BME280;11142;49.930;8.606;2024-02-04T04:14:38;100765.66;;;9.91;100.00
21956;BME280;11142;49.930;8.606;2024-02-04T04:17:07;100766.94;;;9.99;100.00
21956;BME280;11142;49.930;8.606;2024-02-04T04:19:35;100768.09;;;9.94;100.00
21956;BME280;11142;49.930;8.606;2024-02-04T04:22:05;100768.84;;;9.79;100.00
21956;BME280;11142;49.930;8.606;2024-02-04T04:24:33;100745.88;;;9.71;100.00
21956;BME280;11142;49.930;8.606;2024-02-04T04:27:02;100758.94;;;9.70;100.00
21956;BME280;11142;49.930;8.606;2024-02-04T04:29:29;100752.97;;;9.68;100.00
21956;BME280;11142;49.930;8.606;2024-02-04T04:31:57;100754.31;;;9.76;100.00
21956;BME280;11142;49.930;8.606;2024-02-04T04:34:25;100753.50;;;9.74;100.00
21956;BME280;11142;49.930;8.606;2024-02-04T04:36:54;100747.44;;;9.75;100.00
21956;BME280;11142;49.930;8.606;2024-02-04T04:39:23;100752.47;;;9.78;100.00
21956;BME280;11142;49.930;8.606;2024-02-04T04:41:51;100742.47;;;9.71;100.00
21956;BME280;11142;49.930;8.606;2024-02-04T04:44:19;100744.25;;;9.70;100.00
21956;BME280;11142;49.930;8.606;2024-02-04T04:46:47;100756.41;;;9.68;100.00
21956;BME280;11142;49.930;8.606;2024-02-04T04:49:15;100742.69;;;9.66;100.00
21956;BME280;11142;49.930;8.606;2024-02-04T04:51:44;100745.50;;;9.61;100.00
21956;BME280;11142;49.930;8.606;2024-02-04T04:54:12;100738.28;;;9.68;100.00
21956;BME280;11142;49.930;8.606;2024-02-04T04:56:41;100743.69;;;9.64;100.00
21956;BME280;11142;49.930;8.606;2024-02-04T04:59:09;100741.25;;;9.60;100.00
21956;BME280;11142;49.930;8.606;2024-02-04T05:01:37;100744.66;;;9.61;100.00
21956;BME280;11142;49.930;8.606;2024-02-04T05:04:12;100739.31;;;9.64;100.00
21956;BME280;11142;49.930;8.606;2024-02-04T05:06:40;100734.16;;;9.64;100.00
21956;BME280;11142;49.930;8.606;2024-02-04T05:09:08;100747.94;;;9.65;100.00
21956;BME280;11142;49.930;8.606;2024-02-04T05:11:36;100745.59;;;9.60;100.00
21956;BME280;11142;49.930;8.606;2024-02-04T05:14:05;100741.16;;;9.62;100.00
21956;BME280;11142;49.930;8.606;2024-02-04T05:16:33;100745.66;;;9.58;100.00
21956;BME280;11142;49.930;8.606;2024-02-04T05:19:02;100753.97;;;9.65;100.00
21956;BME280;11142;49.930;8.606;2024-02-04T05:21:30;100759.94;;;9.67;100.00
21956;BME280;11142;49.930;8.606;2024-02-04T05:23:58;100755.72;;;9.65;100.00
21956;BME280;11142;49.930;8.606;2024-02-04T05:26:26;100753.75;;;9.70;100.00
21956;BME280;11142;49.930;8.606;2024-02-04T05:28:54;100744.59;;;9.63;100.00
21956;BME280;11142;49.930;8.606;2024-02-04T05:31:24;100753.28;;;9.61;100.00
21956;BME280;11142;49.930;8.606;2024-02-04T05:33:52;100743.00;;;9.60;100.00
21956;BME280;11142;49.930;8.606;2024-02-04T05:36:19;100752.22;;;9.66;100.00
21956;BME280;11142;49.930;8.606;2024-02-04T05:38:47;100755.56;;;9.68;100.00
21956;BME280;11142;49.930;8.606;2024-02-04T05:41:15;100765.78;;;9.71;100.00
21956;BME280;11142;49.930;8.606;2024-02-04T05:43:43;100772.34;;;9.78;100.00
21956;BME280;11142;49.930;8.606;2024-02-04T05:46:13;100765.75;;;9.89;100.00
21956;BME280;11142;49.930;8.606;2024-02-04T05:48:42;100772.97;;;9.83;100.00
21956;BME280;11142;49.930;8.606;2024-02-04T05:51:12;100765.22;;;9.83;100.00
21956;BME280;11142;49.930;8.606;2024-02-04T05:53:40;100780.13;;;9.78;100.00
21956;BME280;11142;49.930;8.606;2024-02-04T05:56:08;100768.84;;;9.79;100.00
21956;BME280;11142;49.930;8.606;2024-02-04T05:58:35;100784.09;;;9.85;100.00
21956;BME280;11142;49.930;8.606;2024-02-04T06:01:04;100777.31;;;9.99;100.00
21956;BME280;11142;49.930;8.606;2024-02-04T06:03:32;100793.16;;;9.93;100.00
21956;BME280;11142;49.930;8.606;2024-02-04T06:06:02;100796.38;;;9.81;100.00
21956;BME280;11142;49.930;8.606;2024-02-04T06:08:30;100793.31;;;9.90;100.00
21956;BME280;11142;49.930;8.606;2024-02-04T06:10:58;100787.78;;;9.98;100.00
21956;BME280;11142;49.930;8.606;2024-02-04T06:13:26;100794.66;;;10.16;100.00
21956;BME280;11142;49.930;8.606;2024-02-04T06:15:53;100794.50;;;10.19;100.00
21956;BME280;11142;49.930;8.606;2024-02-04T06:18:21;100802.13;;;10.22;100.00
21956;BME280;11142;49.930;8.606;2024-02-04T06:20:49;100812.66;;;10.19;100.00
21956;BME280;11142;49.930;8.606;2024-02-04T06:23:18;100813.19;;;10.26;100.00
21956;BME280;11142;49.930;8.606;2024-02-04T06:25:47;100815.31;;;10.35;100.00
21956;BME280;11142;49.930;8.606;2024-02-04T06:28:15;100814.94;;;10.25;100.00
21956;BME280;11142;49.930;8.606;2024-02-04T06:30:43;100811.81;;;10.36;100.00
21956;BME280;11142;49.930;8.606;2024-02-04T06:33:11;100814.19;;;10.23;100.00
21956;BME280;11142;49.930;8.606;2024-02-04T06:35:39;100806.94;;;10.30;100.00
21956;BME280;11142;49.930;8.606;2024-02-04T06:38:07;100815.84;;;10.41;100.00
21956;BME280;11142;49.930;8.606;2024-02-04T06:40:36;100818.53;;;10.40;100.00
21956;BME280;11142;49.930;8.606;2024-02-04T06:43:04;100810.44;;;10.46;100.00
21956;BME280;11142;49.930;8.606;2024-02-04T06:45:32;100815.00;;;10.41;100.00
21956;BME280;11142;49.930;8.606;2024-02-04T06:48:00;100816.84;;;10.39;100.00
21956;BME280;11142;49.930;8.606;2024-02-04T06:50:28;100809.75;;;10.42;100.00
21956;BME280;11142;49.930;8.606;2024-02-04T06:52:56;100806.47;;;10.39;100.00
21956;BME280;11142;49.930;8.606;2024-02-04T06:55:24;100800.13;;;10.44;100.00
21956;BME280;11142;49.930;8.606;2024-02-04T06:57:53;100803.66;;;10.26;100.00
21956;BME280;11142;49.930;8.606;2024-02-04T07:00:21;100802.44;;;10.33;100.00
21956;BME280;11142;49.930;8.606;2024-02-04T07:02:49;100794.03;;;10.45;100.00
21956;BME280;11142;49.930;8.606;2024-02-04T07:05:17;100805.50;;;10.24;100.00
21956;BME280;11142;49.930;8.606;2024-02-04T07:07:45;100795.34;;;10.20;100.00
21956;BME280;11142;49.930;8.606;2024-02-04T07:10:13;100781.78;;;10.15;100.00
21956;BME280;11142;49.930;8.606;2024-02-04T07:12:41;100777.19;;;10.20;100.00
21956;BME280;11142;49.930;8.606;2024-02-04T07:15:10;100773.44;;;10.25;100.00
21956;BME280;11142;49.930;8.606;2024-02-04T07:17:38;100787.34;;;10.24;100.00
21956;BME280;11142;49.930;8.606;2024-02-04T07:20:07;100787.56;;;10.37;100.00
21956;BME280;11142;49.930;8.606;2024-02-04T07:22:36;100802.13;;;10.39;100.00
21956;BME280;11142;49.930;8.606;2024-02-04T07:25:04;100806.75;;;10.50;100.00
21956;BME280;11142;49.930;8.606;2024-02-04T07:27:32;100815.00;;;10.41;100.00
21956;BME280;11142;49.930;8.606;2024-02-04T07:30:01;100810.13;;;10.52;100.00
21956;BME280;11142;49.930;8.606;2024-02-04T07:32:31;100814.06;;;10.59;100.00
21956;BME280;11142;49.930;8.606;2024-02-04T07:35:01;100823.25;;;10.49;100.00
21956;BME280;11142;49.930;8.606;2024-02-04T07:37:29;100810.63;;;10.58;100.00
21956;BME280;11142;49.930;8.606;2024-02-04T07:39:58;100817.91;;;10.52;100.00
21956;BME280;11142;49.930;8.606;2024-02-04T07:42:26;100813.06;;;10.61;100.00
21956;BME280;11142;49.930;8.606;2024-02-04T07:44:54;100819.31;;;10.57;100.00
21956;BME280;11142;49.930;8.606;2024-02-04T07:47:22;100812.53;;;10.55;100.00
21956;BME280;11142;49.930;8.606;2024-02-04T07:49:51;100819.31;;;10.57;100.00
21956;BME280;11142;49.930;8.606;2024-02-04T07:52:19;100814.38;;;10.53;100.00
21956;BME280;11142;49.930;8.606;2024-02-04T07:54:47;100819.72;;;10.50;100.00
21956;BME280;11142;49.930;8.606;2024-02-04T07:57:16;100825.00;;;10.48;100.00
21956;BME280;11142;49.930;8.606;2024-02-04T07:59:43;100832.25;;;10.42;100.00
21956;BME280;11142;49.930;8.606;2024-02-04T08:02:11;100820.06;;;10.27;100.00
21956;BME280;11142;49.930;8.606;2024-02-04T08:04:40;100800.91;;;10.29;100.00
21956;BME280;11142;49.930;8.606;2024-02-04T08:07:09;100800.44;;;10.21;100.00
21956;BME280;11142;49.930;8.606;2024-02-04T08:09:37;100807.63;;;10.33;100.00
21956;BME280;11142;49.930;8.606;2024-02-04T08:12:05;100812.34;;;10.42;100.00
21956;BME280;11142;49.930;8.606;2024-02-04T08:14:34;100808.19;;;10.55;100.00
21956;BME280;11142;49.930;8.606;2024-02-04T08:17:03;100824.69;;;10.54;100.00
21956;BME280;11142;49.930;8.606;2024-02-04T08:19:31;100811.38;;;10.60;100.00
21956;BME280;11142;49.930;8.606;2024-02-04T08:21:59;100809.09;;;10.54;100.00
21956;BME280;11142;49.930;8.606;2024-02-04T08:24:29;100808.94;;;10.57;100.00
21956;BME280;11142;49.930;8.606;2024-02-04T08:26:58;100799.72;;;10.52;100.00
21956;BME280;11142;49.930;8.606;2024-02-04T08:29:26;100801.34;;;10.37;100.00
21956;BME280;11142;49.930;8.606;2024-02-04T08:31:54;100798.53;;;10.42;100.00
21956;BME280;11142;49.930;8.606;2024-02-04T08:34:22;100798.94;;;10.50;100.00
21956;BME280;11142;49.930;8.606;2024-02-04T08:36:51;100808.38;;;10.52;100.00
21956;BME280;11142;49.930;8.606;2024-02-04T08:39:20;100825.75;;;10.50;100.00
21956;BME280;11142;49.930;8.606;2024-02-04T08:41:50;100822.84;;;10.56;100.00
21956;BME280;11142;49.930;8.606;2024-02-04T08:44:18;100804.31;;;10.47;100.00
21956;BME280;11142;49.930;8.606;2024-02-04T08:47:01;100811.50;;;10.42;100.00
21956;BME280;11142;49.930;8.606;2024-02-04T08:49:30;100810.06;;;10.36;100.00
21956;BME280;11142;49.930;8.606;2024-02-04T08:51:57;100806.69;;;10.34;100.00
21956;BME280;11142;49.930;8.606;2024-02-04T08:54:25;100807.16;;;10.42;100.00
21956;BME280;11142;49.930;8.606;2024-02-04T08:56:55;100824.75;;;10.53;100.00
21956;BME280;11142;49.930;8.606;2024-02-04T08:59:24;100808.88;;;10.59;100.00
21956;BME280;11142;49.930;8.606;2024-02-04T09:01:52;100820.53;;;10.68;100.00
21956;BME280;11142;49.930;8.606;2024-02-04T09:04:21;100804.47;;;10.77;100.00
21956;BME280;11142;49.930;8.606;2024-02-04T09:06:55;100793.06;;;11.12;100.00
21956;BME280;11142;49.930;8.606;2024-02-04T09:09:25;100799.06;;;11.44;100.00
21956;BME280;11142;49.930;8.606;2024-02-04T09:11:53;100817.66;;;11.83;100.00
21956;BME280;11142;49.930;8.606;2024-02-04T09:14:22;100836.13;;;11.79;100.00
21956;BME280;11142;49.930;8.606;2024-02-04T09:16:51;100837.59;;;11.67;100.00
21956;BME280;11142;49.930;8.606;2024-02-04T09:19:19;100860.28;;;11.81;100.00
21956;BME280;11142;49.930;8.606;2024-02-04T09:21:47;100867.03;;;11.99;100.00
21956;BME280;11142;49.930;8.606;2024-02-04T09:24:16;100870.66;;;11.96;100.00
21956;BME280;11142;49.930;8.606;2024-02-04T09:26:44;100860.28;;;11.81;100.00
21956;BME280;11142;49.930;8.606;2024-02-04T09:29:15;100869.16;;;12.08;100.00
21956;BME280;11142;49.930;8.606;2024-02-04T09:31:45;100867.53;;;12.35;100.00
21956;BME280;11142;49.930;8.606;2024-02-04T09:34:14;100877.34;;;12.60;100.00
21956;BME280;11142;49.930;8.606;2024-02-04T09:36:46;100884.34;;;12.88;100.00
21956;BME280;11142;49.930;8.606;2024-02-04T09:39:15;100875.97;;;12.83;100.00
21956;BME280;11142;49.930;8.606;2024-02-04T09:41:43;100882.41;;;12.91;100.00
21956;BME280;11142;49.930;8.606;2024-02-04T09:44:11;100902.13;;;13.93;100.00
21956;BME280;11142;49.930;8.606;2024-02-04T09:46:45;100907.97;;;13.96;100.00
21956;BME280;11142;49.930;8.606;2024-02-04T09:49:13;100918.38;;;13.83;100.00
21956;BME280;11142;49.930;8.606;2024-02-04T09:51:41;100915.63;;;13.99;100.00
21956;BME280;11142;49.930;8.606;2024-02-04T09:54:11;100917.56;;;13.96;100.00
21956;BME280;11142;49.930;8.606;2024-02-04T09:56:40;100912.44;;;13.67;100.00
21956;BME280;11142;49.930;8.606;2024-02-04T09:59:08;100912.81;;;13.75;100.00
21956;BME280;11142;49.930;8.606;2024-02-04T10:01:36;100902.72;;;13.83;100.00
21956;BME280;11142;49.930;8.606;2024-02-04T10:04:06;100910.06;;;13.50;100.00
21956;BME280;11142;49.930;8.606;2024-02-04T10:06:34;100905.88;;;13.19;100.00
21956;BME280;11142;49.930;8.606;2024-02-04T10:09:02;100900.44;;;12.94;100.00
21956;BME280;11142;49.930;8.606;2024-02-04T10:11:30;100905.69;;;12.50;100.00
21956;BME280;11142;49.930;8.606;2024-02-04T10:13:59;100895.78;;;12.71;100.00
21956;BME280;11142;49.930;8.606;2024-02-04T10:16:28;100903.44;;;12.44;100.00
21956;BME280;11142;49.930;8.606;2024-02-04T10:18:56;100913.47;;;12.36;100.00
21956;BME280;11142;49.930;8.606;2024-02-04T10:21:25;100899.88;;;12.31;100.00
21956;BME280;11142;49.930;8.606;2024-02-04T10:23:53;100891.44;;;12.12;100.00
21956;BME280;11142;49.930;8.606;2024-02-04T10:26:22;100888.63;;;12.01;100.00
21956;BME280;11142;49.930;8.606;2024-02-04T10:28:50;100876.94;;;12.08;100.00
21956;BME280;11142;49.930;8.606;2024-02-04T10:31:19;100900.72;;;12.32;100.00
21956;BME280;11142;49.930;8.606;2024-02-04T10:33:49;100902.72;;;12.42;100.00
21956;BME280;11142;49.930;8.606;2024-02-04T10:36:17;100901.38;;;12.35;100.00
21956;BME280;11142;49.930;8.606;2024-02-04T10:38:47;100875.72;;;12.43;100.00
21956;BME280;11142;49.930;8.606;2024-02-04T10:41:16;100890.66;;;12.55;100.00
21956;BME280;11142;49.930;8.606;2024-02-04T10:43:45;100885.41;;;12.41;100.00
21956;BME280;11142;49.930;8.606;2024-02-04T10:46:13;100895.03;;;12.55;100.00
21956;BME280;11142;49.930;8.606;2024-02-04T10:48:49;100882.63;;;12.44;100.00
21956;BME280;11142;49.930;8.606;2024-02-04T10:51:23;100869.59;;;12.30;100.00
21956;BME280;11142;49.930;8.606;2024-02-04T10:53:55;100880.75;;;12.46;100.00
21956;BME280;11142;49.930;8.606;2024-02-04T10:56:25;100885.03;;;12.47;100.00
21956;BME280;11142;49.930;8.606;2024-02-04T10:58:58;100885.69;;;12.51;100.00
21956;BME280;11142;49.930;8.606;2024-02-04T11:01:27;100890.13;;;12.93;100.00
21956;BME280;11142;49.930;8.606;2024-02-04T11:03:57;100887.47;;;13.08;100.00
21956;BME280;11142;49.930;8.606;2024-02-04T11:06:26;100882.59;;;12.88;100.00
21956;BME280;11142;49.930;8.606;2024-02-04T11:08:57;100880.56;;;12.93;100.00
21956;BME280;11142;49.930;8.606;2024-02-04T11:11:27;100871.06;;;13.06;100.00
21956;BME280;11142;49.930;8.606;2024-02-04T11:13:58;100862.41;;;12.92;100.00
21956;BME280;11142;49.930;8.606;2024-02-04T11:16:47;100867.41;;;12.66;100.00
21956;BME280;11142;49.930;8.606;2024-02-04T11:19:31;100858.50;;;12.99;100.00
21956;BME280;11142;49.930;8.606;2024-02-04T11:22:22;100858.56;;;13.54;100.00
21956;BME280;11142;49.930;8.606;2024-02-04T11:25:08;100849.75;;;13.28;100.00
21956;BME280;11142;49.930;8.606;2024-02-04T11:27:42;100834.72;;;13.19;100.00
21956;BME280;11142;49.930;8.606;2024-02-04T11:30:11;100842.31;;;13.08;100.00
21956;BME280;11142;49.930;8.606;2024-02-04T11:32:42;100846.78;;;13.34;100.00
21956;BME280;11142;49.930;8.606;2024-02-04T11:35:10;100845.13;;;13.19;100.00
21956;BME280;11142;49.930;8.606;2024-02-04T11:37:39;100854.72;;;13.59;100.00
21956;BME280;11142;49.930;8.606;2024-02-04T11:40:14;100854.72;;;13.59;100.00
21956;BME280;11142;49.930;8.606;2024-02-04T11:42:44;100847.09;;;13.83;100.00
21956;BME280;11142;49.930;8.606;2024-02-04T11:45:13;100845.28;;;13.98;100.00
21956;BME280;11142;49.930;8.606;2024-02-04T11:47:42;100858.81;;;13.63;100.00
21956;BME280;11142;49.930;8.606;2024-02-04T11:50:11;100847.81;;;13.58;100.00
21956;BME280;11142;49.930;8.606;2024-02-04T11:52:41;100852.66;;;13.64;100.00
21956;BME280;11142;49.930;8.606;2024-02-04T11:55:14;100860.66;;;13.61;100.00
21956;BME280;11142;49.930;8.606;2024-02-04T11:57:43;100867.31;;;13.53;100.00
21956;BME280;11142;49.930;8.606;2024-02-04T12:00:15;100820.84;;;13.45;100.00
21956;BME280;11142;49.930;8.606;2024-02-04T12:02:44;100839.53;;;13.66;100.00
21956;BME280;11142;49.930;8.606;2024-02-04T12:05:13;100849.19;;;13.37;100.00
21956;BME280;11142;49.930;8.606;2024-02-04T12:07:42;100852.56;;;13.11;100.00
21956;BME280;11142;49.930;8.606;2024-02-04T12:10:11;100850.75;;;12.69;100.00
21956;BME280;11142;49.930;8.606;2024-02-04T12:12:41;100821.09;;;12.57;100.00
21956;BME280;11142;49.930;8.606;2024-02-04T12:15:10;100816.81;;;12.70;100.00
21956;BME280;11142;49.930;8.606;2024-02-04T12:17:39;100810.69;;;13.00;100.00
21956;BME280;11142;49.930;8.606;2024-02-04T12:20:08;100816.44;;;12.76;100.00
21956;BME280;11142;49.930;8.606;2024-02-04T12:22:38;100817.47;;;12.88;100.00
21956;BME280;11142;49.930;8.606;2024-02-04T12:25:07;100815.69;;;12.60;100.00
21956;BME280;11142;49.930;8.606;2024-02-04T12:27:36;100815.88;;;12.57;100.00
21956;BME280;11142;49.930;8.606;2024-02-04T12:30:06;100806.97;;;12.61;100.00
21956;BME280;11142;49.930;8.606;2024-02-04T12:32:35;100797.75;;;12.84;100.00
21956;BME280;11142;49.930;8.606;2024-02-04T12:35:06;100808.25;;;13.11;100.00
21956;BME280;11142;49.930;8.606;2024-02-04T12:37:36;100808.50;;;13.88;100.00
21956;BME280;11142;49.930;8.606;2024-02-04T12:40:05;100828.16;;;14.06;100.00
21956;BME280;11142;49.930;8.606;2024-02-04T12:42:34;100817.75;;;14.31;100.00
21956;BME280;11142;49.930;8.606;2024-02-04T12:45:02;100810.56;;;13.83;100.00
21956;BME280;11142;49.930;8.606;2024-02-04T12:47:31;100790.16;;;13.36;100.00
21956;BME280;11142;49.930;8.606;2024-02-04T12:49:59;100792.75;;;13.09;100.00
21956;BME280;11142;49.930;8.606;2024-02-04T12:52:29;100801.53;;;13.07;100.00